createdAt,value
2022-09-11T00:01:38.120Z,4.03
2022-09-11T00:04:06.420Z,2.93
2022-09-11T00:06:34.815Z,8.60
2022-09-11T00:09:06.930Z,3.27
2022-09-11T00:11:36.814Z,8.93
2022-09-11T00:14:05.664Z,4.87
2022-09-11T00:16:36.878Z,5.47
2022-09-11T00:19:08.247Z,2.43
2022-09-11T00:21:37.016Z,6.80
2022-09-11T00:24:10.230Z,5.33
2022-09-11T00:26:38.911Z,5.70
2022-09-11T00:29:07.093Z,7.07
2022-09-11T00:31:35.597Z,3.57
2022-09-11T00:34:04.032Z,6.10
2022-09-11T00:36:32.661Z,3.23
2022-09-11T00:39:01.281Z,7.40
2022-09-11T00:41:33.414Z,4.57
2022-09-11T00:44:02.907Z,4.20
2022-09-11T00:46:35.192Z,4.83
2022-09-11T00:49:07.779Z,4.43
2022-09-11T00:51:37.889Z,4.10
2022-09-11T00:54:06.536Z,4.60
2022-09-11T00:56:38.568Z,3.93
2022-09-11T00:59:07.676Z,6.47
2022-09-11T01:01:37.271Z,4.20
2022-09-11T01:04:07.512Z,7.57
2022-09-11T01:06:35.955Z,4.27
2022-09-11T01:09:04.270Z,4.13
2022-09-11T01:11:43.407Z,4.43
2022-09-11T01:14:21.541Z,4.47
2022-09-11T01:16:54.385Z,4.27
2022-09-11T01:19:32.778Z,8.10
2022-09-11T01:22:19.234Z,4.37
2022-09-11T01:24:59.548Z,5.83
2022-09-11T01:27:44.852Z,5.17
2022-09-11T01:30:15.255Z,6.53
2022-09-11T01:33:07.301Z,4.17
2022-09-11T01:35:48.411Z,4.30
2022-09-11T01:38:20.616Z,8.73
2022-09-11T01:40:53.609Z,2.97
2022-09-11T01:43:27.097Z,3.93
2022-09-11T01:45:58.469Z,8.67
2022-09-11T01:48:29.982Z,3.90
2022-09-11T01:51:00.024Z,2.80
2022-09-11T01:53:31.926Z,3.60
2022-09-11T01:56:03.562Z,114.10
2022-09-11T01:58:38.747Z,1999.90
2022-09-11T02:01:11.876Z,1999.90
2022-09-11T02:03:42.404Z,1999.90
2022-09-11T02:06:14.289Z,1377.23
2022-09-11T02:08:47.182Z,5.43
2022-09-11T02:11:19.790Z,4.10
2022-09-11T02:13:56.979Z,6.37
2022-09-11T02:16:36.427Z,2.37
2022-09-11T02:19:06.852Z,2.33
2022-09-11T02:21:35.864Z,3.20
2022-09-11T02:24:04.493Z,3.97
2022-09-11T02:26:35.168Z,1999.90
2022-09-11T02:29:05.547Z,3.50
2022-09-11T02:31:36.871Z,4.87
2022-09-11T02:34:05.356Z,5.00
2022-09-11T02:37:01.701Z,2.13
2022-09-11T02:39:52.265Z,2.00
2022-09-11T02:42:34.229Z,4.30
2022-09-11T02:45:11.113Z,2.63
2022-09-11T02:47:47.111Z,2.97
2022-09-11T02:50:23.784Z,3.60
2022-09-11T02:52:59.522Z,2.57
2022-09-11T02:55:35.960Z,3.60
2022-09-11T02:58:07.241Z,5.63
2022-09-11T03:00:37.701Z,2.23
2022-09-11T03:03:06.302Z,2.70
2022-09-11T03:05:37.325Z,2.57
2022-09-11T03:08:05.551Z,3.43
2022-09-11T03:10:34.465Z,4.33
2022-09-11T03:13:02.636Z,4.63
2022-09-11T03:15:34.414Z,5.03
2022-09-11T03:18:05.392Z,2.20
2022-09-11T03:20:34.258Z,2.70
2022-09-11T03:23:02.496Z,3.90
2022-09-11T03:25:30.830Z,4.30
2022-09-11T03:28:04.734Z,7.37
2022-09-11T03:30:35.838Z,3.03
2022-09-11T03:33:05.579Z,5.30
2022-09-11T03:35:34.458Z,28.30
2022-09-11T03:38:03.715Z,1999.90
2022-09-11T03:40:32.206Z,4.87
2022-09-11T03:43:00.602Z,456.83
2022-09-11T03:45:29.700Z,2.40
2022-09-11T03:47:58.664Z,3.47
2022-09-11T03:50:28.440Z,3.53
2022-09-11T03:52:56.630Z,3.10
2022-09-11T03:55:25.234Z,7.73
2022-09-11T03:57:53.478Z,2.50
2022-09-11T04:00:22.225Z,5.80
2022-09-11T04:02:50.837Z,2.80
2022-09-11T04:05:34.053Z,5.03
2022-09-11T04:08:03.268Z,2.40
2022-09-11T04:10:33.902Z,1.60
2022-09-11T04:13:03.213Z,2.60
2022-09-11T04:15:32.979Z,2.43
2022-09-11T04:18:05.484Z,5.37
2022-09-11T04:20:39.831Z,1.20
2022-09-11T04:23:09.309Z,4.33
2022-09-11T04:25:39.078Z,4.40
2022-09-11T04:28:08.191Z,4.30
2022-09-11T04:30:38.510Z,2.40
2022-09-11T04:33:07.151Z,1.50
2022-09-11T04:35:40.255Z,3.60
2022-09-11T04:38:09.331Z,5.60
2022-09-11T04:40:39.758Z,3.27
2022-09-11T04:43:08.221Z,2.60
2022-09-11T04:45:36.742Z,4.20
2022-09-11T04:48:06.518Z,1.90
2022-09-11T04:50:34.843Z,3.37
2022-09-11T04:53:16.723Z,2.30
2022-09-11T04:55:45.417Z,4.30
2022-09-11T04:58:14.892Z,4.77
2022-09-11T05:00:43.125Z,5.63
2022-09-11T05:03:11.445Z,4.37
2022-09-11T05:05:39.645Z,1.20
2022-09-11T05:08:08.737Z,2.90
2022-09-11T05:10:40.072Z,4.37
2022-09-11T05:13:09.241Z,3.67
2022-09-11T05:15:37.398Z,5.53
2022-09-11T05:18:06.986Z,6.13
2022-09-11T05:20:35.723Z,2.97
2022-09-11T05:23:03.957Z,5.33
2022-09-11T05:25:32.988Z,7.03
2022-09-11T05:28:02.984Z,3.60
2022-09-11T05:30:31.489Z,4.40
2022-09-11T05:33:00.001Z,1.87
2022-09-11T05:35:32.212Z,2.90
2022-09-11T05:38:01.493Z,4.77
2022-09-11T05:40:30.446Z,3.07
2022-09-11T05:42:59.431Z,2.10
2022-09-11T05:45:29.638Z,2.13
2022-09-11T05:47:58.427Z,3.73
2022-09-11T05:50:26.944Z,3.10
2022-09-11T05:52:55.429Z,3.30
2022-09-11T05:55:24.128Z,5.00
2022-09-11T05:57:53.230Z,1.93
2022-09-11T06:00:22.391Z,3.33
2022-09-11T06:02:56.352Z,4.33
2022-09-11T06:05:28.835Z,8.10
2022-09-11T06:08:01.541Z,7.03
2022-09-11T06:10:30.264Z,6.50
2022-09-11T06:12:58.812Z,2.80
2022-09-11T06:15:45.647Z,4.17
2022-09-11T06:18:18.069Z,6.43
2022-09-11T06:20:56.788Z,4.93
2022-09-11T06:23:25.258Z,5.20
2022-09-11T06:25:54.554Z,3.00
2022-09-11T06:28:23.755Z,5.20
2022-09-11T06:30:55.346Z,3.30
2022-09-11T06:33:25.021Z,4.03
2022-09-11T06:36:00.001Z,3.83
2022-09-11T06:38:28.711Z,4.73
2022-09-11T06:40:57.363Z,4.10
2022-09-11T06:43:25.919Z,3.07
2022-09-11T06:45:54.185Z,5.63
2022-09-11T06:48:25.343Z,3.40
2022-09-11T06:50:54.486Z,5.93
2022-09-11T06:53:22.754Z,7.00
2022-09-11T06:55:54.800Z,5.10
2022-09-11T06:58:23.105Z,2.87
2022-09-11T07:00:51.921Z,5.00
2022-09-11T07:03:20.739Z,5.60
2022-09-11T07:05:53.341Z,6.53
2022-09-11T07:08:24.830Z,2.83
2022-09-11T07:10:53.556Z,7.87
2022-09-11T07:13:24.412Z,4.80
2022-09-11T07:16:01.590Z,3.90
2022-09-11T07:18:34.751Z,4.20
2022-09-11T07:21:07.583Z,4.17
2022-09-11T07:23:37.175Z,17.13
2022-09-11T07:26:06.167Z,4.40
2022-09-11T07:28:34.795Z,4.30
2022-09-11T07:31:07.992Z,3.60
2022-09-11T07:33:36.488Z,3.70
2022-09-11T07:36:12.275Z,3.47
2022-09-11T07:38:44.851Z,8.90
2022-09-11T07:41:16.876Z,3.60
2022-09-11T07:43:47.022Z,1.97
2022-09-11T07:46:16.536Z,2.10
2022-09-11T07:48:46.574Z,1.63
2022-09-11T07:51:18.931Z,1.57
2022-09-11T07:53:50.270Z,1.70
2022-09-11T07:56:20.164Z,2.70
2022-09-11T07:58:49.991Z,4.07
2022-09-11T08:01:20.190Z,2.20
2022-09-11T08:03:49.691Z,2.20
2022-09-11T08:06:22.564Z,2.70
2022-09-11T08:08:54.406Z,2.20
2022-09-11T08:11:24.658Z,6.67
2022-09-11T08:13:55.158Z,12.20
2022-09-11T08:16:26.780Z,11.40
2022-09-11T08:18:58.185Z,1999.90
2022-09-11T08:21:28.014Z,53.50
2022-09-11T08:23:56.656Z,46.70
2022-09-11T08:26:26.661Z,47.37
2022-09-11T08:28:57.073Z,48.83
2022-09-11T08:31:28.403Z,48.57
2022-09-11T08:33:59.230Z,56.47
2022-09-11T08:36:30.581Z,57.17
2022-09-11T08:39:01.562Z,60.07
2022-09-11T08:41:42.122Z,1999.90
2022-09-11T08:44:23.040Z,1999.90
2022-09-11T08:46:56.296Z,1999.90
2022-09-11T08:49:28.051Z,1999.90
2022-09-11T08:52:00.212Z,1999.90
2022-09-11T08:54:32.095Z,1999.90
2022-09-11T08:57:11.873Z,1999.90
2022-09-11T09:00:07.361Z,1435.23
2022-09-11T09:03:13.373Z,1359.33
2022-09-11T09:05:47.305Z,1999.90
2022-09-11T09:08:29.691Z,1999.90
2022-09-11T09:11:02.601Z,1999.90
2022-09-11T09:14:06.063Z,1999.90
2022-09-11T09:16:46.115Z,53.47
2022-09-11T09:19:19.812Z,58.00
2022-09-11T09:21:53.501Z,73.47
2022-09-11T09:24:24.100Z,75.50
2022-09-11T09:26:56.259Z,69.60
2022-09-11T09:29:28.487Z,63.00
2022-09-11T09:32:02.910Z,61.50
2022-09-11T09:34:35.376Z,18.57
2022-09-11T09:37:07.706Z,15.30
2022-09-11T09:39:38.211Z,15.40
2022-09-11T09:42:34.732Z,12.97
2022-09-11T09:45:16.694Z,12.50
2022-09-11T09:47:46.261Z,11.90
2022-09-11T09:50:19.792Z,11.50
2022-09-11T09:52:49.003Z,11.97
2022-09-11T09:55:40.906Z,10.67
2022-09-11T09:58:27.625Z,8.20
2022-09-11T10:00:55.945Z,1999.90
2022-09-11T10:03:25.238Z,34.23
2022-09-11T10:05:54.697Z,0.80
2022-09-11T10:08:29.400Z,1999.90
2022-09-11T10:11:00.410Z,1999.90
2022-09-11T10:13:30.669Z,99.93
2022-09-11T10:16:00.701Z,84.27
2022-09-11T10:18:37.685Z,86.73
2022-09-11T10:21:24.893Z,90.20
2022-09-11T10:23:55.918Z,93.27
2022-09-11T10:26:29.213Z,92.33
2022-09-11T10:29:01.247Z,94.20
2022-09-11T10:31:30.933Z,1999.90
2022-09-11T10:34:01.034Z,1999.90
2022-09-11T10:36:31.757Z,1999.90
2022-09-11T10:39:01.011Z,1999.90
2022-09-11T10:41:34.263Z,1999.90
2022-09-11T10:44:03.527Z,1999.90
2022-09-11T10:46:40.434Z,31.57
2022-09-11T10:49:17.987Z,10.63
2022-09-11T10:52:00.447Z,11.60
2022-09-11T10:54:44.636Z,9.93
2022-09-11T10:57:20.991Z,10.03
2022-09-11T10:59:57.388Z,10.13
2022-09-11T11:02:30.547Z,9.93
2022-09-11T11:04:59.657Z,10.47
2022-09-11T11:07:48.868Z,1999.90
2022-09-11T11:10:25.688Z,1999.90
2022-09-11T11:13:06.615Z,1999.90
2022-09-11T11:15:49.573Z,1999.90
2022-09-11T11:18:31.425Z,1354.90
2022-09-11T11:21:08.439Z,22.80
2022-09-11T11:23:47.047Z,18.67
2022-09-11T11:26:29.624Z,13.53
2022-09-11T11:32:08.585Z,10.30
2022-09-11T11:34:55.118Z,7.90
2022-09-11T11:37:29.746Z,6.57
2022-09-11T11:40:02.559Z,5.83
2022-09-11T11:42:33.183Z,4.10
2022-09-11T11:45:05.583Z,4.07
2022-09-11T11:47:38.288Z,3.10
2022-09-11T11:50:12.505Z,2.10
2022-09-11T11:52:49.703Z,2.43
2022-09-11T11:55:20.840Z,1.90
2022-09-11T11:57:58.612Z,1.50
2022-09-11T12:00:30.110Z,1.33
2022-09-11T12:03:03.377Z,1393.97
2022-09-11T12:05:34.809Z,8.50
2022-09-11T12:08:03.516Z,6.57
2022-09-11T12:10:33.838Z,5.70
2022-09-11T12:13:04.306Z,11.70
2022-09-11T12:15:34.904Z,7.03
2022-09-11T12:18:07.615Z,1373.23
2022-09-11T12:20:39.279Z,29.00
2022-09-11T12:23:11.483Z,19.97
2022-09-11T12:26:06.208Z,14.00
2022-09-11T12:28:35.885Z,4.60
2022-09-11T12:31:06.308Z,36.60
2022-09-11T12:33:54.658Z,1999.90
2022-09-11T12:36:31.000Z,1999.90
2022-09-11T12:39:02.623Z,136.10
2022-09-11T12:41:32.210Z,1999.90
2022-09-11T12:44:01.937Z,1999.90
2022-09-11T12:47:15.019Z,1999.90
2022-09-11T12:49:54.495Z,1999.90
2022-09-11T12:52:34.146Z,1999.90
2022-09-11T12:55:09.443Z,1999.90
2022-09-11T12:57:40.984Z,1999.90
2022-09-11T13:00:21.805Z,1999.90
2022-09-11T13:02:54.381Z,1999.90
2022-09-11T13:05:27.324Z,1999.90
2022-09-11T13:07:59.788Z,1999.90
2022-09-11T13:10:35.341Z,1999.90
2022-09-11T13:13:44.369Z,1999.90
2022-09-11T13:16:20.166Z,1999.90
2022-09-11T13:18:48.535Z,1999.90
2022-09-11T13:21:23.222Z,1999.90
2022-09-11T13:23:55.078Z,1999.90
2022-09-11T13:26:26.486Z,1999.90
2022-09-11T13:28:58.569Z,1999.90
2022-09-11T13:31:33.910Z,1999.90
2022-09-11T13:34:06.286Z,1999.90
2022-09-11T13:36:38.435Z,1999.90
2022-09-11T13:39:07.742Z,1999.90
2022-09-11T13:41:40.163Z,1999.90
2022-09-11T13:44:14.363Z,1999.90
2022-09-11T13:46:51.858Z,1999.90
2022-09-11T13:49:32.503Z,1999.90
2022-09-11T13:52:02.345Z,1999.90
2022-09-11T13:54:32.818Z,1999.90
2022-09-11T13:57:15.372Z,1999.90
2022-09-11T13:59:49.556Z,1999.90
2022-09-11T14:02:42.391Z,1999.90
2022-09-11T14:05:15.459Z,1999.90
2022-09-11T14:07:56.410Z,1999.90
2022-09-11T14:10:29.327Z,1999.90
2022-09-11T14:13:08.269Z,1999.90
2022-09-11T14:15:40.105Z,1999.90
2022-09-11T14:18:14.530Z,1999.90
2022-09-11T14:20:45.388Z,1999.90
2022-09-11T14:23:20.922Z,1999.90
2022-09-11T14:26:14.892Z,1999.90
2022-09-11T14:29:00.908Z,1999.90
2022-09-11T14:31:35.493Z,1999.90
2022-09-11T14:34:12.230Z,1999.90
2022-09-11T14:36:44.186Z,1999.90
2022-09-11T14:39:18.068Z,1999.90
2022-09-11T14:41:47.022Z,1999.90
2022-09-11T14:44:16.388Z,1999.90
2022-09-11T14:46:46.453Z,1999.90
2022-09-11T14:49:15.792Z,1999.90
2022-09-11T14:51:44.398Z,1999.90
2022-09-11T14:54:17.420Z,1999.90
2022-09-11T14:56:47.016Z,1999.90
2022-09-11T14:59:19.010Z,1999.90
2022-09-11T15:01:47.765Z,1999.90
2022-09-11T15:04:20.002Z,1999.90
2022-09-11T15:06:51.491Z,1999.90
2022-09-11T15:09:21.038Z,1999.90
2022-09-11T15:11:50.532Z,1999.90
2022-09-11T15:14:32.534Z,1999.90
2022-09-11T15:17:09.430Z,1999.90
2022-09-11T15:19:38.122Z,1999.90
2022-09-11T15:22:07.791Z,1999.90
2022-09-11T15:24:37.401Z,1999.90
2022-09-11T15:27:06.240Z,1999.90
2022-09-11T15:29:36.335Z,1999.90
2022-09-11T15:32:06.314Z,1999.90
2022-09-11T15:34:34.520Z,1999.90
2022-09-11T15:37:03.013Z,1999.90
2022-09-11T15:39:31.260Z,1999.90
2022-09-11T15:42:01.860Z,1999.90
2022-09-11T15:44:30.169Z,1999.90
2022-09-11T15:46:59.574Z,1999.90
2022-09-11T15:49:29.463Z,1999.90
2022-09-11T15:51:58.114Z,1999.90
2022-09-11T15:54:26.559Z,1999.90
2022-09-11T15:56:55.110Z,1999.90
2022-09-11T15:59:26.945Z,1999.90
2022-09-11T16:01:55.683Z,1999.90
2022-09-11T16:04:28.105Z,1999.90
2022-09-11T16:06:56.839Z,1999.90
2022-09-11T16:09:26.703Z,1999.90
2022-09-11T16:11:56.086Z,1999.90
2022-09-11T16:14:27.417Z,1999.90
2022-09-11T16:16:58.341Z,1999.90
2022-09-11T16:19:28.849Z,1999.90
2022-09-11T16:21:58.910Z,1999.90
2022-09-11T16:24:28.835Z,1999.90
2022-09-11T16:26:57.221Z,1999.90
2022-09-11T16:29:38.474Z,1999.90
2022-09-11T16:32:28.752Z,87.33
2022-09-11T16:34:59.531Z,70.90
2022-09-11T16:37:28.297Z,68.47
2022-09-11T16:39:57.055Z,73.00
2022-09-11T16:42:26.888Z,1999.90
2022-09-11T16:44:56.670Z,1999.90
2022-09-11T16:47:25.164Z,1999.90
2022-09-11T16:50:09.138Z,1999.90
2022-09-11T16:52:39.214Z,1999.90
2022-09-11T16:55:09.664Z,1999.90
2022-09-11T16:57:38.732Z,1999.90
2022-09-11T17:00:11.337Z,1999.90
2022-09-11T17:02:39.759Z,1999.90
2022-09-11T17:05:13.410Z,324.67
2022-09-11T17:07:42.163Z,1999.90
2022-09-11T17:10:11.382Z,1999.90
2022-09-11T17:12:40.623Z,1999.90
2022-09-11T17:15:12.287Z,1999.90
2022-09-11T17:17:41.219Z,1999.90
2022-09-11T17:20:11.840Z,1999.90
2022-09-11T17:22:41.021Z,1999.90
2022-09-11T17:25:09.708Z,1999.90
2022-09-11T17:27:38.016Z,1999.90
2022-09-11T17:30:07.111Z,1999.90
2022-09-11T17:32:38.232Z,1999.90
2022-09-11T17:35:06.884Z,1999.90
2022-09-11T17:37:35.371Z,1999.90
2022-09-11T17:40:04.987Z,1999.90
2022-09-11T17:42:34.022Z,1999.90
2022-09-11T17:45:02.943Z,53.63
2022-09-11T17:47:33.166Z,41.83
2022-09-11T17:50:03.065Z,0.73
2022-09-11T17:52:33.238Z,0.70
2022-09-11T17:55:01.755Z,0.90
2022-09-11T17:57:31.938Z,1.13
2022-09-11T18:00:00.912Z,1.77
2022-09-11T18:02:29.413Z,0.97
2022-09-11T18:04:57.936Z,2.50
2022-09-11T18:07:27.957Z,1.10
2022-09-11T18:09:56.688Z,0.90
2022-09-11T18:12:26.900Z,0.70
2022-09-11T18:14:57.216Z,1.33
2022-09-11T18:17:25.569Z,0.97
2022-09-11T18:19:54.121Z,0.70
2022-09-11T18:22:23.331Z,1.10
2022-09-11T18:24:53.289Z,1.17
2022-09-11T18:27:21.688Z,0.90
2022-09-11T18:29:50.251Z,1.13
2022-09-11T18:32:19.950Z,1.43
2022-09-11T18:34:49.829Z,2.43
2022-09-11T18:37:18.653Z,1.23
2022-09-11T18:39:48.697Z,1.57
2022-09-11T18:42:18.761Z,1.60
2022-09-11T18:44:47.288Z,1.47
2022-09-11T18:47:15.725Z,1.20
2022-09-11T18:49:44.059Z,3.70
2022-09-11T18:52:14.792Z,2.33
2022-09-11T18:54:43.330Z,0.77
2022-09-11T18:57:11.752Z,2.47
2022-09-11T18:59:43.731Z,1.97
2022-09-11T19:02:12.722Z,2.57
2022-09-11T19:04:41.220Z,4.63
2022-09-11T19:07:10.370Z,1.23
2022-09-11T19:09:41.648Z,1.20
2022-09-11T19:12:15.967Z,2.27
2022-09-11T19:14:45.863Z,3.23
2022-09-11T19:17:14.404Z,1.80
2022-09-11T19:19:42.657Z,1.77
2022-09-11T19:22:11.611Z,1.70
2022-09-11T19:24:40.246Z,1.20
2022-09-11T19:27:08.775Z,2.80
2022-09-11T19:29:37.363Z,1.67
2022-09-11T19:32:08.430Z,2.10
2022-09-11T19:34:38.840Z,1.53
2022-09-11T19:37:07.509Z,2.10
2022-09-11T19:39:35.824Z,2.30
2022-09-11T19:42:04.396Z,1.87
2022-09-11T19:44:34.731Z,1.40
2022-09-11T19:47:03.715Z,4.97
2022-09-11T19:49:33.824Z,1.10
2022-09-11T19:52:03.375Z,2.70
2022-09-11T19:54:34.379Z,0.97
2022-09-11T19:57:04.976Z,1.17
2022-09-11T19:59:33.845Z,0.90
2022-09-11T20:02:02.387Z,1.30
2022-09-11T20:04:30.826Z,1.63
2022-09-11T20:07:00.662Z,3.53
2022-09-11T20:09:32.143Z,2.50
2022-09-11T20:12:01.757Z,2.10
2022-09-11T20:14:31.119Z,1.20
2022-09-11T20:17:01.144Z,5.23
2022-09-11T20:19:29.678Z,1.80
2022-09-11T20:21:58.180Z,3.23
2022-09-11T20:24:27.921Z,3.03
2022-09-11T20:26:56.239Z,2.20
2022-09-11T20:29:24.461Z,2.37
2022-09-11T20:31:54.106Z,1.37
2022-09-11T20:34:27.999Z,2.23
2022-09-11T20:37:00.902Z,1.60
2022-09-11T20:39:30.947Z,0.93
2022-09-11T20:42:00.608Z,1.80
2022-09-11T20:44:28.967Z,1.40
2022-09-11T20:46:57.357Z,1.10
2022-09-11T20:49:26.809Z,1.60
2022-09-11T20:51:55.146Z,1.00
2022-09-11T20:54:23.319Z,3.73
2022-09-11T20:56:52.872Z,2.50
2022-09-11T20:59:21.718Z,1.70
2022-09-11T21:01:50.573Z,2.57
2022-09-11T21:04:18.920Z,2.30
2022-09-11T21:06:47.623Z,1.23
2022-09-11T21:09:16.036Z,1.23
2022-09-11T21:11:44.904Z,2.00
2022-09-11T21:14:16.316Z,2.27
2022-09-11T21:16:44.788Z,1.47
2022-09-11T21:19:12.962Z,1.90
2022-09-11T21:21:41.299Z,1.47
2022-09-11T21:24:12.588Z,8.87
2022-09-11T21:26:41.284Z,1.23
2022-09-11T21:29:13.034Z,2.00
2022-09-11T21:31:42.849Z,1.97
2022-09-11T21:34:11.367Z,1.80
2022-09-11T21:36:39.502Z,1.63
2022-09-11T21:39:07.821Z,1.63
2022-09-11T21:41:36.106Z,2.07
2022-09-11T21:44:04.467Z,1.10
2022-09-11T21:46:33.095Z,1.93
2022-09-11T21:49:02.948Z,1.00
2022-09-11T21:51:31.099Z,1.47
2022-09-11T21:54:01.815Z,3.57
2022-09-11T21:56:32.621Z,2.40
2022-09-11T21:59:01.068Z,2.40
2022-09-11T22:01:31.924Z,2.33
2022-09-11T22:04:02.252Z,1.60
2022-09-11T22:06:31.382Z,1.90
2022-09-11T22:08:59.953Z,6.00
2022-09-11T22:11:28.391Z,0.80
2022-09-11T22:13:56.556Z,1.10
2022-09-11T22:16:24.909Z,1.63
2022-09-11T22:18:54.490Z,1.13
2022-09-11T22:21:24.117Z,1.60
2022-09-11T22:23:52.669Z,1.47
2022-09-11T22:26:23.654Z,1.93
2022-09-11T22:28:52.263Z,1.77
2022-09-11T22:31:22.268Z,1.77
2022-09-11T22:33:52.639Z,1.60
2022-09-11T22:36:24.779Z,3.63
2022-09-11T22:38:53.456Z,2.20
2022-09-11T22:41:21.735Z,1.37
2022-09-11T22:43:50.378Z,1.40
2022-09-11T22:46:20.960Z,2.80
2022-09-11T22:48:49.308Z,2.10
2022-09-11T22:51:18.092Z,2.93
2022-09-11T22:53:47.729Z,1.33
2022-09-11T22:56:16.857Z,1.60
2022-09-11T22:58:45.105Z,4.80
2022-09-11T23:01:21.034Z,1.60
2022-09-11T23:03:50.604Z,1.53
2022-09-11T23:06:36.398Z,1.53
2022-09-11T23:09:08.038Z,2.67
2022-09-11T23:11:36.231Z,3.50
2022-09-11T23:14:04.388Z,1.83
2022-09-11T23:16:32.826Z,2.73
2022-09-11T23:19:02.597Z,2.00
2022-09-11T23:21:33.051Z,2.17
2022-09-11T23:24:02.055Z,1.83
2022-09-11T23:26:32.145Z,2.07
2022-09-11T23:29:00.688Z,1.90
2022-09-11T23:31:30.558Z,4.70
2022-09-11T23:34:01.071Z,3.00
2022-09-11T23:36:31.262Z,3.17
2022-09-11T23:39:00.507Z,2.00
2022-09-11T23:41:29.274Z,2.30
2022-09-11T23:43:59.031Z,2.03
2022-09-11T23:46:27.202Z,1.73
2022-09-11T23:48:55.935Z,1.13
2022-09-11T23:51:24.145Z,1.63
2022-09-11T23:53:52.650Z,2.73
2022-09-11T23:56:22.438Z,3.30
2022-09-11T23:58:51.460Z,2.53
